createdAt,value
2018-05-12T00:01:40.806Z,20.03
2018-05-12T00:04:08.418Z,18.93
2018-05-12T00:06:36.124Z,17.97
2018-05-12T00:09:03.745Z,18.07
2018-05-12T00:11:32.251Z,18.43
2018-05-12T00:13:59.883Z,18.27
2018-05-12T00:16:28.280Z,19.20
2018-05-12T00:18:55.866Z,17.40
2018-05-12T00:21:23.445Z,21.37
2018-05-12T00:23:51.232Z,18.97
2018-05-12T00:26:18.821Z,18.67
2018-05-12T00:28:46.446Z,17.73
2018-05-12T00:31:14.026Z,19.00
2018-05-12T00:33:41.646Z,19.07
2018-05-12T00:36:09.225Z,20.50
2018-05-12T00:38:36.810Z,19.63
2018-05-12T00:41:04.389Z,21.80
2018-05-12T00:43:31.977Z,20.23
2018-05-12T00:45:59.597Z,22.37
2018-05-12T00:48:27.177Z,21.20
2018-05-12T00:50:54.816Z,23.60
2018-05-12T00:53:22.405Z,21.10
2018-05-12T00:55:49.995Z,22.40
2018-05-12T00:58:18.673Z,23.30
2018-05-12T01:00:46.254Z,24.30
2018-05-12T01:03:13.833Z,24.23
2018-05-12T01:05:41.415Z,22.40
2018-05-12T01:08:09.777Z,19.93
2018-05-12T01:10:37.361Z,24.50
2018-05-12T01:13:04.941Z,20.93
2018-05-12T01:15:32.517Z,23.43
2018-05-12T01:18:01.033Z,24.60
2018-05-12T01:20:28.608Z,23.10
2018-05-12T01:22:56.190Z,23.90
2018-05-12T01:25:23.764Z,25.00
2018-05-12T01:27:51.349Z,24.87
2018-05-12T01:30:19.704Z,24.40
2018-05-12T01:32:47.286Z,24.90
2018-05-12T01:35:14.906Z,25.33
2018-05-12T01:37:42.532Z,29.00
2018-05-12T01:40:10.117Z,27.00
2018-05-12T01:42:37.741Z,25.40
2018-05-12T01:45:05.326Z,24.70
2018-05-12T01:47:32.921Z,26.43
2018-05-12T01:50:00.534Z,25.00
2018-05-12T01:52:28.115Z,23.10
2018-05-12T01:54:55.694Z,24.80
2018-05-12T01:57:23.282Z,26.60
2018-05-12T01:59:50.862Z,28.63
2018-05-12T02:02:18.441Z,26.63
2018-05-12T02:04:46.065Z,28.07
2018-05-12T02:07:13.688Z,28.83
2018-05-12T02:09:41.322Z,25.30
2018-05-12T02:12:09.665Z,24.37
2018-05-12T02:14:37.284Z,23.93
2018-05-12T02:17:04.872Z,27.10
2018-05-12T02:19:32.484Z,26.53
2018-05-12T02:22:00.068Z,25.93
2018-05-12T02:24:28.421Z,25.60
2018-05-12T02:26:56.925Z,24.70
2018-05-12T02:29:24.513Z,27.07
2018-05-12T02:31:52.105Z,28.23
2018-05-12T02:34:19.689Z,25.43
2018-05-12T02:36:47.317Z,27.30
2018-05-12T02:39:14.941Z,30.27
2018-05-12T02:41:42.573Z,30.30
2018-05-12T02:44:10.161Z,27.07
2018-05-12T02:46:37.749Z,29.07
2018-05-12T02:49:05.346Z,27.87
2018-05-12T02:51:32.929Z,25.97
2018-05-12T02:54:00.523Z,27.70
2018-05-12T02:56:28.149Z,27.13
2018-05-12T02:58:55.778Z,27.60
2018-05-12T03:01:23.392Z,28.07
2018-05-12T03:03:50.991Z,28.83
2018-05-12T03:06:18.588Z,28.40
2018-05-12T03:08:46.212Z,27.30
2018-05-12T03:11:13.801Z,29.90
2018-05-12T03:13:41.421Z,30.20
2018-05-12T03:16:17.134Z,29.67
2018-05-12T03:18:44.730Z,29.27
2018-05-12T03:21:12.317Z,28.87
2018-05-12T03:23:39.903Z,27.03
2018-05-12T03:26:07.534Z,27.60
2018-05-12T03:28:35.128Z,27.40
2018-05-12T03:31:02.759Z,29.00
2018-05-12T03:33:30.353Z,26.07
2018-05-12T03:35:59.215Z,27.47
2018-05-12T03:38:26.809Z,28.27
2018-05-12T03:40:54.432Z,26.57
2018-05-12T03:43:22.013Z,28.57
2018-05-12T03:45:49.642Z,29.60
2018-05-12T03:48:17.265Z,28.03
2018-05-12T03:50:44.850Z,26.70
2018-05-12T03:53:12.474Z,26.13
2018-05-12T03:55:40.098Z,30.17
2018-05-12T03:58:07.685Z,26.93
2018-05-12T04:00:35.310Z,26.27
2018-05-12T04:03:03.425Z,28.10
2018-05-12T04:05:42.797Z,27.10
2018-05-12T04:08:22.943Z,26.00
2018-05-12T04:11:02.499Z,27.50
2018-05-12T04:13:31.026Z,27.20
2018-05-12T04:15:58.620Z,27.63
2018-05-12T04:18:26.293Z,26.57
2018-05-12T04:20:53.883Z,27.87
2018-05-12T04:23:21.516Z,27.40
2018-05-12T04:25:49.894Z,25.00
2018-05-12T04:28:18.261Z,26.10
2018-05-12T04:30:45.841Z,27.13
2018-05-12T04:33:13.422Z,26.53
2018-05-12T04:35:41.020Z,26.77
2018-05-12T04:38:08.637Z,27.17
2018-05-12T04:40:37.249Z,25.03
2018-05-12T04:43:05.605Z,25.30
2018-05-12T04:45:34.116Z,26.57
2018-05-12T04:48:01.737Z,24.60
2018-05-12T04:50:29.314Z,25.50
2018-05-12T04:52:56.897Z,24.00
2018-05-12T04:55:24.476Z,26.00
2018-05-12T04:57:52.060Z,25.07
2018-05-12T05:00:19.637Z,24.30
2018-05-12T05:02:47.223Z,25.93
2018-05-12T05:05:14.805Z,25.50
2018-05-12T05:07:42.379Z,24.60
2018-05-12T05:10:09.998Z,25.80
2018-05-12T05:12:37.621Z,24.90
2018-05-12T05:15:05.923Z,27.47
2018-05-12T05:17:33.501Z,23.87
2018-05-12T05:20:02.034Z,25.57
2018-05-12T05:22:29.621Z,25.80
2018-05-12T05:24:57.208Z,26.20
2018-05-12T05:27:24.786Z,26.20
2018-05-12T05:29:52.366Z,27.27
2018-05-12T05:32:19.957Z,26.47
2018-05-12T05:34:47.540Z,27.77
2018-05-12T05:37:15.131Z,28.10
2018-05-12T05:39:42.742Z,28.97
2018-05-12T05:42:10.321Z,27.97
2018-05-12T05:44:37.901Z,28.97
2018-05-12T05:47:05.482Z,27.00
2018-05-12T05:49:33.077Z,30.23
2018-05-12T05:52:00.661Z,28.03
2018-05-12T05:54:28.246Z,27.13
2018-05-12T05:56:55.833Z,27.10
2018-05-12T05:59:23.413Z,26.63
2018-05-12T06:01:51.010Z,26.47
2018-05-12T06:04:18.653Z,26.73
2018-05-12T06:06:46.265Z,24.10
2018-05-12T06:09:13.862Z,25.27
2018-05-12T06:11:41.454Z,25.30
2018-05-12T06:14:09.038Z,27.40
2018-05-12T06:16:36.630Z,24.73
2018-05-12T06:19:04.209Z,22.07
2018-05-12T06:21:31.797Z,25.27
2018-05-12T06:23:59.382Z,25.33
2018-05-12T06:26:27.026Z,25.37
2018-05-12T06:28:54.653Z,22.63
2018-05-12T06:31:22.230Z,23.77
2018-05-12T06:33:50.842Z,24.80
2018-05-12T06:36:18.449Z,23.67
2018-05-12T06:38:46.033Z,22.80
2018-05-12T06:41:13.617Z,23.17
2018-05-12T06:43:41.929Z,23.90
2018-05-12T06:46:09.510Z,21.20
2018-05-12T06:48:37.098Z,23.77
2018-05-12T06:51:06.710Z,24.50
2018-05-12T06:53:34.564Z,21.50
2018-05-12T06:56:02.153Z,20.00
2018-05-12T06:58:30.382Z,20.13
2018-05-12T07:00:57.965Z,21.43
2018-05-12T07:03:26.319Z,20.50
2018-05-12T07:05:53.901Z,22.10
2018-05-12T07:08:21.486Z,21.10
2018-05-12T07:10:49.066Z,18.67
2018-05-12T07:13:16.652Z,19.33
2018-05-12T07:15:44.273Z,21.53
2018-05-12T07:18:11.894Z,19.07
2018-05-12T07:20:39.482Z,19.77
2018-05-12T07:23:07.066Z,18.77
2018-05-12T07:25:35.432Z,16.47
2018-05-12T07:30:36.313Z,16.67
2018-05-12T07:33:03.898Z,19.27
2018-05-12T07:35:31.476Z,18.30
2018-05-12T07:37:59.095Z,17.27
2018-05-12T07:40:26.682Z,17.63
2018-05-12T07:42:54.265Z,17.27
2018-05-12T07:45:21.850Z,16.80
2018-05-12T07:47:50.213Z,17.00
2018-05-12T07:50:17.797Z,16.07
2018-05-12T07:52:45.382Z,16.70
2018-05-12T07:55:13.006Z,17.73
2018-05-12T07:57:40.592Z,17.63
2018-05-12T08:00:08.177Z,15.83
2018-05-12T08:02:35.762Z,17.07
2018-05-12T08:05:03.382Z,15.87
2018-05-12T08:07:30.957Z,14.33
2018-05-12T08:09:58.547Z,15.37
2018-05-12T08:12:27.041Z,15.80
2018-05-12T08:14:54.624Z,16.00
2018-05-12T08:17:22.221Z,16.07
2018-05-12T08:19:49.809Z,14.40
2018-05-12T08:22:17.401Z,14.47
2018-05-12T08:24:44.989Z,14.80
2018-05-12T08:27:12.574Z,15.10
2018-05-12T08:29:40.164Z,14.43
2018-05-12T08:32:07.745Z,13.80
2018-05-12T08:34:35.331Z,15.67
2018-05-12T08:37:02.921Z,13.80
2018-05-12T08:39:30.514Z,12.27
2018-05-12T08:41:59.005Z,13.40
2018-05-12T08:44:26.590Z,12.83
2018-05-12T08:46:54.173Z,11.90
2018-05-12T08:49:21.766Z,14.33
2018-05-12T08:51:50.124Z,14.27
2018-05-12T08:54:17.745Z,13.50
2018-05-12T08:56:46.143Z,12.30
2018-05-12T08:59:15.650Z,13.37
2018-05-12T09:01:44.131Z,13.37
2018-05-12T09:04:11.758Z,12.57
2018-05-12T09:06:39.342Z,13.07
2018-05-12T09:09:06.953Z,12.87
2018-05-12T09:11:34.537Z,12.30
2018-05-12T09:14:03.033Z,13.20
2018-05-12T09:16:31.629Z,12.70
2018-05-12T09:18:59.209Z,13.27
2018-05-12T09:21:26.825Z,13.03
2018-05-12T09:23:54.405Z,12.50
2018-05-12T09:26:22.025Z,13.60
2018-05-12T09:28:49.621Z,12.13
2018-05-12T09:31:17.278Z,13.13
2018-05-12T09:33:44.867Z,12.50
2018-05-12T09:36:13.125Z,12.53
2018-05-12T09:38:42.711Z,13.20
2018-05-12T09:41:14.033Z,12.53
2018-05-12T09:43:46.444Z,13.40
2018-05-12T09:46:15.269Z,13.10
2018-05-12T09:48:44.283Z,12.37
2018-05-12T09:54:05.138Z,11.20
2018-05-12T09:56:32.786Z,11.97
2018-05-12T09:59:00.378Z,12.30
2018-05-12T10:01:28.267Z,12.97
2018-05-12T10:03:55.894Z,12.30
2018-05-12T10:06:23.526Z,11.43
2018-05-12T10:08:51.136Z,11.83
2018-05-12T10:11:18.728Z,12.37
2018-05-12T10:13:46.316Z,13.20
2018-05-12T10:16:13.907Z,11.50
2018-05-12T10:18:41.538Z,12.00
2018-05-12T10:21:09.153Z,11.67
2018-05-12T10:23:36.882Z,12.10
2018-05-12T10:26:04.515Z,13.83
2018-05-12T10:28:32.150Z,13.60
2018-05-12T10:30:59.757Z,12.67
2018-05-12T10:33:27.388Z,12.40
2018-05-12T10:35:55.018Z,12.40
2018-05-12T10:38:22.599Z,13.13
2018-05-12T10:40:50.184Z,13.10
2018-05-12T10:43:17.769Z,11.50
2018-05-12T10:45:45.401Z,11.77
2018-05-12T10:48:13.001Z,11.70
2018-05-12T10:50:40.625Z,12.43
2018-05-12T10:53:08.259Z,12.50
2018-05-12T10:55:35.843Z,10.53
2018-05-12T10:58:03.471Z,11.90
2018-05-12T11:00:31.057Z,11.00
2018-05-12T11:02:58.645Z,11.43
2018-05-12T11:05:26.222Z,10.73
2018-05-12T11:07:54.711Z,11.97
2018-05-12T11:10:23.006Z,12.10
2018-05-12T11:12:50.698Z,12.33
2018-05-12T11:15:18.280Z,12.23
2018-05-12T11:17:45.866Z,11.20
2018-05-12T11:20:14.430Z,13.47
2018-05-12T11:22:41.970Z,11.53
2018-05-12T11:25:09.558Z,13.30
2018-05-12T11:27:37.181Z,13.40
2018-05-12T11:30:04.771Z,12.63
2018-05-12T11:32:32.361Z,12.20
2018-05-12T11:34:59.948Z,11.47
2018-05-12T11:37:27.541Z,10.17
2018-05-12T11:39:55.127Z,13.30
2018-05-12T11:42:23.483Z,12.47
2018-05-12T11:44:51.773Z,12.00
2018-05-12T11:47:20.146Z,11.10
2018-05-12T11:49:48.438Z,12.37
2018-05-12T11:52:16.805Z,12.40
2018-05-12T11:54:44.430Z,11.93
2018-05-12T11:57:12.098Z,12.37
2018-05-12T11:59:39.686Z,12.43
2018-05-12T12:02:07.317Z,12.10
2018-05-12T12:04:34.907Z,11.77
2018-05-12T12:07:02.493Z,12.30
2018-05-12T12:09:30.081Z,13.00
2018-05-12T12:11:57.668Z,12.50
2018-05-12T12:14:25.256Z,12.63
2018-05-12T12:16:52.857Z,11.97
2018-05-12T12:19:20.437Z,12.53
2018-05-12T12:21:48.024Z,13.83
2018-05-12T12:24:15.642Z,13.60
2018-05-12T12:26:43.232Z,11.70
2018-05-12T12:29:10.858Z,12.20
2018-05-12T12:31:39.343Z,13.03
2018-05-12T12:34:06.933Z,12.40
2018-05-12T12:36:34.522Z,12.40
2018-05-12T12:39:02.101Z,12.37
2018-05-12T12:41:30.630Z,11.20
2018-05-12T12:43:58.214Z,11.73
2018-05-12T12:46:26.538Z,11.63
2018-05-12T12:48:54.118Z,11.00
2018-05-12T12:51:21.698Z,12.03
2018-05-12T12:53:49.286Z,11.27
2018-05-12T12:56:16.874Z,11.00
2018-05-12T12:58:44.466Z,12.23
2018-05-12T13:01:12.051Z,11.03
2018-05-12T13:03:39.673Z,11.50
2018-05-12T13:06:07.290Z,12.30
2018-05-12T13:08:35.782Z,11.60
2018-05-12T13:11:03.367Z,11.40
2018-05-12T13:13:31.013Z,11.17
2018-05-12T13:15:58.631Z,10.20
2018-05-12T13:18:27.136Z,11.23
2018-05-12T13:20:55.622Z,10.80
2018-05-12T13:23:23.246Z,12.13
2018-05-12T13:25:50.829Z,10.87
2018-05-12T13:28:18.416Z,11.40
2018-05-12T13:30:46.005Z,11.37
2018-05-12T13:33:14.366Z,10.63
2018-05-12T13:35:42.843Z,10.03
2018-05-12T13:38:10.433Z,9.67
2018-05-12T13:40:38.025Z,10.60
2018-05-12T13:43:05.644Z,10.40
2018-05-12T13:45:33.261Z,10.17
2018-05-12T13:48:01.745Z,9.00
2018-05-12T13:50:30.266Z,9.97
2018-05-12T13:52:57.851Z,9.80
2018-05-12T13:55:25.470Z,9.30
2018-05-12T13:57:53.048Z,9.80
2018-05-12T14:00:21.374Z,9.80
2018-05-12T14:02:49.730Z,9.87
2018-05-12T14:05:18.228Z,11.00
2018-05-12T14:07:45.801Z,9.83
2018-05-12T14:10:13.374Z,9.10
2018-05-12T14:12:41.722Z,10.20
2018-05-12T14:15:10.094Z,9.53
2018-05-12T14:17:37.677Z,9.70
2018-05-12T14:20:06.194Z,9.40
2018-05-12T14:22:34.645Z,9.27
2018-05-12T14:25:02.234Z,9.50
2018-05-12T14:27:30.765Z,9.50
2018-05-12T14:29:59.123Z,9.87
2018-05-12T14:32:26.745Z,9.90
2018-05-12T14:34:55.233Z,9.93
2018-05-12T14:37:23.601Z,9.70
2018-05-12T14:39:52.967Z,10.40
2018-05-12T14:42:20.639Z,10.63
2018-05-12T14:44:48.214Z,9.90
2018-05-12T14:47:15.803Z,10.40
2018-05-12T14:49:43.381Z,9.90
2018-05-12T14:52:12.582Z,10.73
2018-05-12T14:54:40.939Z,10.23
2018-05-12T14:57:08.521Z,10.80
2018-05-12T14:59:36.109Z,10.07
2018-05-12T15:02:04.493Z,10.13
2018-05-12T15:04:32.117Z,10.30
2018-05-12T15:06:59.724Z,9.47
2018-05-12T15:09:28.252Z,10.63
2018-05-12T15:11:56.644Z,11.37
2018-05-12T15:14:24.270Z,10.80
2018-05-12T15:16:53.810Z,10.10
2018-05-12T15:19:22.349Z,10.87
2018-05-12T15:21:50.700Z,9.90
2018-05-12T15:24:19.001Z,9.77
2018-05-12T15:26:47.401Z,10.50
2018-05-12T15:29:15.902Z,10.30
2018-05-12T15:31:44.441Z,11.33
2018-05-12T15:34:12.023Z,11.03
2018-05-12T15:36:40.306Z,11.07
2018-05-12T15:39:07.887Z,11.17
2018-05-12T15:41:36.283Z,11.20
2018-05-12T15:44:04.735Z,11.90
2018-05-12T15:46:33.073Z,12.37
2018-05-12T15:49:00.652Z,10.93
2018-05-12T15:51:29.186Z,11.60
2018-05-12T15:53:57.564Z,11.23
2018-05-12T15:56:26.053Z,12.63
2018-05-12T15:58:54.579Z,11.20
2018-05-12T16:01:22.865Z,10.97
2018-05-12T16:03:51.221Z,12.33
2018-05-12T16:06:18.858Z,12.20
2018-05-12T16:08:46.444Z,12.20
2018-05-12T16:11:14.026Z,11.10
2018-05-12T16:13:41.612Z,11.93
2018-05-12T16:16:09.210Z,12.83
2018-05-12T16:18:36.790Z,13.23
2018-05-12T16:21:04.374Z,13.03
2018-05-12T16:23:32.013Z,12.17
2018-05-12T16:26:00.374Z,13.20
2018-05-12T16:28:28.738Z,13.07
2018-05-12T16:30:56.319Z,11.73
2018-05-12T16:33:24.802Z,11.57
2018-05-12T16:35:53.198Z,13.10
2018-05-12T16:38:21.490Z,12.93
2018-05-12T16:40:49.074Z,12.47
2018-05-12T16:43:16.673Z,11.97
2018-05-12T16:45:45.161Z,12.47
2018-05-12T16:48:12.741Z,11.97
2018-05-12T16:50:40.329Z,12.10
2018-05-12T16:53:07.947Z,12.10
2018-05-12T16:55:35.569Z,10.90
2018-05-12T16:58:04.017Z,13.77
2018-05-12T17:00:31.605Z,11.57
2018-05-12T17:02:59.187Z,11.93
2018-05-12T17:05:26.774Z,12.80
2018-05-12T17:07:55.246Z,11.83
2018-05-12T17:10:23.521Z,13.23
2018-05-12T17:12:51.122Z,13.30
2018-05-12T17:15:18.711Z,13.93
2018-05-12T17:17:46.331Z,12.73
2018-05-12T17:20:14.915Z,11.83
2018-05-12T17:22:43.330Z,11.93
2018-05-12T17:25:10.909Z,12.13
2018-05-12T17:27:38.495Z,11.80
2018-05-12T17:30:06.073Z,11.87
2018-05-12T17:32:33.657Z,13.07
2018-05-12T17:35:01.597Z,11.57
2018-05-12T17:37:29.185Z,12.00
2018-05-12T17:39:56.770Z,12.03
2018-05-12T17:42:25.116Z,11.87
2018-05-12T17:44:53.531Z,11.80
2018-05-12T17:47:21.113Z,12.53
2018-05-12T17:49:48.729Z,12.23
2018-05-12T17:52:16.314Z,12.30
2018-05-12T17:54:43.938Z,12.43
2018-05-12T17:57:11.516Z,12.30
2018-05-12T17:59:39.142Z,12.90
2018-05-12T18:02:06.769Z,13.17
2018-05-12T18:04:34.354Z,12.80
2018-05-12T18:07:01.972Z,13.57
2018-05-12T18:09:29.558Z,13.40
2018-05-12T18:11:57.192Z,15.13
2018-05-12T18:14:24.786Z,14.47
2018-05-12T18:16:52.424Z,15.60
2018-05-12T18:19:20.032Z,14.53
2018-05-12T18:21:48.537Z,16.63
2018-05-12T18:24:16.172Z,15.60
2018-05-12T18:26:43.977Z,16.30
2018-05-12T18:29:11.580Z,15.73
2018-05-12T18:31:39.961Z,15.23
2018-05-12T18:34:07.551Z,14.43
2018-05-12T18:36:35.855Z,15.30
2018-05-12T18:39:04.251Z,15.37
2018-05-12T18:41:31.851Z,15.70
2018-05-12T18:44:00.378Z,15.57
2018-05-12T18:46:27.967Z,14.10
2018-05-12T18:48:55.697Z,16.20
2018-05-12T18:51:23.292Z,14.90
2018-05-12T18:53:50.939Z,15.40
2018-05-12T18:56:18.529Z,14.80
2018-05-12T18:58:46.161Z,14.47
2018-05-12T19:01:13.751Z,14.43
2018-05-12T19:03:41.522Z,14.00
2018-05-12T19:06:09.925Z,13.67
2018-05-12T19:08:37.548Z,13.50
2018-05-12T19:11:05.913Z,14.60
2018-05-12T19:13:33.489Z,14.03
2018-05-12T19:16:01.119Z,13.73
2018-05-12T19:18:28.718Z,14.60
2018-05-12T19:20:56.356Z,14.20
2018-05-12T19:23:23.962Z,14.70
2018-05-12T19:25:51.548Z,14.50
2018-05-12T19:28:19.130Z,14.70
2018-05-12T19:30:46.709Z,14.13
2018-05-12T19:33:14.290Z,15.20
2018-05-12T19:35:41.877Z,21.57
2018-05-12T19:38:09.456Z,17.53
2018-05-12T19:40:37.039Z,18.43
2018-05-12T19:43:04.634Z,17.63
2018-05-12T19:45:33.047Z,17.50
2018-05-12T19:48:00.659Z,18.10
2018-05-12T19:50:28.241Z,19.30
2018-05-12T19:52:55.827Z,19.00
2018-05-12T19:55:23.409Z,19.23
2018-05-12T19:57:51.120Z,16.70
2018-05-12T20:00:18.705Z,15.23
2018-05-12T20:02:46.291Z,17.33
2018-05-12T20:05:14.810Z,19.27
2018-05-12T20:07:42.391Z,19.03
2018-05-12T20:10:10.017Z,19.97
2018-05-12T20:12:37.623Z,16.10
2018-05-12T20:15:05.254Z,17.60
2018-05-12T20:17:32.838Z,17.10
2018-05-12T20:20:00.419Z,16.33
2018-05-12T20:22:28.011Z,16.20
2018-05-12T20:24:55.598Z,16.57
2018-05-12T20:27:23.226Z,15.53
2018-05-12T20:29:50.811Z,15.90
2018-05-12T20:32:19.268Z,15.10
2018-05-12T20:34:47.122Z,15.53
2018-05-12T20:37:14.777Z,16.90
2018-05-12T20:39:42.366Z,16.77
2018-05-12T20:42:10.006Z,19.07
2018-05-12T20:44:37.603Z,20.00
2018-05-12T20:47:05.185Z,19.90
2018-05-12T20:49:32.767Z,18.00
2018-05-12T20:52:00.381Z,17.00
2018-05-12T20:54:27.970Z,16.00
2018-05-12T20:56:56.385Z,17.37
2018-05-12T20:59:24.671Z,16.07
2018-05-12T21:01:53.146Z,17.70
2018-05-12T21:04:20.741Z,16.07
2018-05-12T21:06:48.642Z,17.27
2018-05-12T21:09:16.230Z,17.30
2018-05-12T21:11:43.859Z,17.50
2018-05-12T21:14:11.485Z,17.20
2018-05-12T21:16:39.086Z,15.70
2018-05-12T21:19:06.714Z,16.87
2018-05-12T21:21:34.305Z,16.17
2018-05-12T21:24:02.015Z,17.93
2018-05-12T21:26:30.357Z,18.27
2018-05-12T21:28:58.717Z,19.30
2018-05-12T21:31:26.302Z,16.70
2018-05-12T21:33:53.925Z,17.13
2018-05-12T21:36:21.511Z,18.10
2018-05-12T21:38:49.142Z,17.20
2018-05-12T21:41:16.772Z,16.87
2018-05-12T21:43:44.373Z,16.00
2018-05-12T21:46:12.887Z,17.20
2018-05-12T21:48:41.385Z,16.70
2018-05-12T21:51:09.015Z,18.87
2018-05-12T21:53:36.674Z,17.27
2018-05-12T21:56:04.266Z,18.10
2018-05-12T21:58:32.010Z,16.60
2018-05-12T22:00:59.642Z,17.67
2018-05-12T22:03:27.277Z,16.87
2018-05-12T22:05:54.857Z,17.73
2018-05-12T22:08:23.378Z,17.00
2018-05-12T22:10:51.775Z,17.30
2018-05-12T22:13:19.390Z,16.27
2018-05-12T22:15:46.978Z,16.90
2018-05-12T22:18:16.449Z,16.90
2018-05-12T22:20:44.063Z,17.97
2018-05-12T22:23:11.682Z,17.50
2018-05-12T22:25:39.262Z,15.57
2018-05-12T22:28:06.887Z,17.53
2018-05-12T22:30:34.574Z,16.27
2018-05-12T22:33:02.133Z,18.40
2018-05-12T22:35:29.720Z,16.87
2018-05-12T22:37:57.304Z,17.33
2018-05-12T22:40:25.797Z,17.93
2018-05-12T22:42:54.164Z,17.27
2018-05-12T22:45:21.750Z,16.40
2018-05-12T22:47:49.335Z,17.90
2018-05-12T22:50:16.963Z,16.73
2018-05-12T22:52:44.549Z,16.40
2018-05-12T22:55:12.901Z,18.60
2018-05-12T22:57:40.481Z,16.17
2018-05-12T23:00:08.066Z,18.20
2018-05-12T23:02:35.651Z,16.80
2018-05-12T23:05:03.228Z,17.33
2018-05-12T23:07:30.806Z,18.70
2018-05-12T23:09:58.390Z,16.10
2018-05-12T23:12:25.973Z,16.90
2018-05-12T23:14:53.551Z,16.97
2018-05-12T23:17:21.140Z,18.30
2018-05-12T23:19:49.508Z,18.53
2018-05-12T23:22:17.090Z,18.33
2018-05-12T23:24:45.585Z,18.20
2018-05-12T23:27:13.954Z,16.50
2018-05-12T23:29:41.535Z,19.00
2018-05-12T23:32:09.118Z,18.07
2018-05-12T23:34:36.706Z,21.07
2018-05-12T23:37:05.125Z,17.67
2018-05-12T23:39:33.614Z,18.93
2018-05-12T23:42:01.202Z,17.93
2018-05-12T23:44:28.785Z,17.30
2018-05-12T23:46:56.366Z,19.70
2018-05-12T23:49:23.941Z,20.27
2018-05-12T23:51:52.435Z,20.17
2018-05-12T23:54:20.976Z,18.80
2018-05-12T23:56:48.557Z,19.47
2018-05-12T23:59:16.142Z,20.47
